Time;durP1;ratioP1;P1;durP2;ratioP2;P2;SDS_P1;SDS_P2;PMS_P1;PMS_P2;Temp;Humidity;BMP_temperature;BMP_pressure;BME280_temperature;BME280_humidity;BME280_pressure;Samples;Min_cycle;Max_cycle;Signal;HPM_P1;HPM_P2
2023/11/03 05:29:36;;;;;;;7.07;3.80;;;11.40;99.90;;;;;;5056331;28;20052;-65
2023/11/03 05:32:22;;;;;;;6.15;3.38;;;11.50;99.90;;;;;;5057060;28;20053;-64
2023/11/03 05:35:08;;;;;;;6.28;3.25;;;11.50;99.90;;;;;;5055112;28;20189;-64
2023/11/03 05:37:55;;;;;;;4.95;3.38;;;11.50;99.90;;;;;;5053585;28;20053;-74
2023/11/03 05:40:43;;;;;;;4.57;3.08;;;11.40;99.90;;;;;;5052477;28;20045;-73
2023/11/03 05:43:30;;;;;;;6.10;3.22;;;11.50;99.90;;;;;;5051212;28;20052;-74
2023/11/03 05:46:17;;;;;;;4.40;2.90;;;11.50;99.90;;;;;;5061993;28;20398;-74
2023/11/03 05:49:04;;;;;;;5.60;3.45;;;11.50;99.90;;;;;;5059945;28;20102;-73
2023/11/03 05:51:50;;;;;;;5.03;3.13;;;11.40;99.90;;;;;;5054140;28;20098;-74
2023/11/03 05:54:35;;;;;;;4.78;2.83;;;11.40;99.90;;;;;;5056638;28;20119;-74
2023/11/03 05:57:21;;;;;;;5.20;3.65;;;11.50;99.90;;;;;;5054406;28;20040;-74
2023/11/03 06:00:11;;;;;;;5.15;3.47;;;11.40;99.90;;;;;;5085058;28;20049;-74
2023/11/03 06:02:57;;;;;;;5.93;3.40;;;11.40;99.90;;;;;;5052441;28;20068;-75
2023/11/03 06:05:43;;;;;;;6.90;3.20;;;11.50;99.90;;;;;;5053105;28;20033;-75
2023/11/03 06:08:29;;;;;;;7.50;3.42;;;11.40;99.90;;;;;;5051040;28;20087;-75
2023/11/03 06:11:15;;;;;;;4.88;3.00;;;11.40;99.90;;;;;;5053682;28;20044;-74
2023/11/03 06:14:01;;;;;;;3.92;2.80;;;11.40;99.90;;;;;;5050656;28;20045;-74
2023/11/03 06:16:47;;;;;;;4.43;2.97;;;11.40;99.90;;;;;;5044617;28;20105;-75
2023/11/03 06:19:33;;;;;;;4.43;2.90;;;11.40;99.90;;;;;;5053273;28;20048;-75
2023/11/03 06:22:20;;;;;;;6.28;2.85;;;11.40;99.90;;;;;;5056304;28;20074;-74
2023/11/03 06:25:07;;;;;;;6.38;3.00;;;11.40;99.90;;;;;;5069539;28;20448;-74
2023/11/03 06:27:52;;;;;;;6.75;3.35;;;11.40;99.90;;;;;;5064231;28;20486;-74
2023/11/03 06:30:38;;;;;;;3.15;2.20;;;11.30;99.90;;;;;;5053957;28;20053;-74
2023/11/03 06:33:24;;;;;;;4.32;2.58;;;11.30;99.90;;;;;;5060081;28;20044;-76
2023/11/03 06:36:10;;;;;;;5.18;2.50;;;11.30;99.90;;;;;;5067149;28;20051;-76
2023/11/03 06:38:56;;;;;;;4.30;2.38;;;11.30;99.90;;;;;;5069907;28;20055;-69
2023/11/03 06:41:43;;;;;;;7.95;2.45;;;11.30;99.90;;;;;;5054258;28;20158;-69
2023/11/03 06:44:29;;;;;;;4.65;2.45;;;11.30;99.90;;;;;;5068858;28;20052;-69
2023/11/03 06:47:15;;;;;;;3.95;2.42;;;11.30;99.90;;;;;;5050343;28;20033;-69
2023/11/03 06:50:02;;;;;;;3.90;2.33;;;11.30;99.90;;;;;;5057562;28;20048;-68
2023/11/03 06:52:50;;;;;;;3.22;1.95;;;11.30;99.90;;;;;;5066940;28;20044;-69
2023/11/03 06:55:36;;;;;;;7.30;2.42;;;11.30;99.90;;;;;;5062529;28;20052;-68
2023/11/03 06:58:22;;;;;;;5.05;2.90;;;11.30;99.90;;;;;;5061106;28;20029;-68
2023/11/03 07:01:08;;;;;;;5.10;2.50;;;11.40;99.90;;;;;;5050604;28;20048;-68
2023/11/03 07:03:54;;;;;;;5.10;2.30;;;11.40;99.90;;;;;;5050576;28;20045;-69
2023/11/03 07:06:40;;;;;;;2.97;2.00;;;11.40;99.90;;;;;;5061944;28;20044;-68
2023/11/03 07:09:26;;;;;;;3.40;2.13;;;11.40;99.90;;;;;;5056599;28;20036;-68
2023/11/03 07:12:12;;;;;;;4.60;1.80;;;11.40;99.90;;;;;;5069945;28;20040;-68
2023/11/03 07:14:59;;;;;;;2.83;1.80;;;11.40;99.90;;;;;;5054857;28;20049;-69
2023/11/03 07:17:45;;;;;;;4.85;2.40;;;11.40;99.90;;;;;;5063947;28;20041;-70
2023/11/03 07:20:31;;;;;;;7.10;2.50;;;11.50;99.90;;;;;;5049769;28;20039;-68
2023/11/03 07:23:21;;;;;;;5.45;2.30;;;11.50;99.90;;;;;;5048784;28;20052;-69
2023/11/03 07:26:07;;;;;;;5.68;2.40;;;11.50;99.90;;;;;;5070026;28;20498;-69
2023/11/03 07:28:54;;;;;;;4.38;2.45;;;11.50;99.90;;;;;;5052192;28;20048;-70
2023/11/03 07:31:40;;;;;;;4.07;2.45;;;11.60;99.90;;;;;;5068588;28;20465;-69
2023/11/03 07:34:26;;;;;;;4.03;2.10;;;11.60;99.90;;;;;;5046788;28;20465;-69
2023/11/03 07:37:12;;;;;;;3.55;2.10;;;11.60;99.90;;;;;;5070870;28;20043;-69
2023/11/03 07:39:58;;;;;;;8.05;2.88;;;11.60;99.90;;;;;;5067123;28;20036;-69
2023/11/03 07:42:44;;;;;;;6.85;2.58;;;11.70;99.90;;;;;;5068082;28;20071;-69
2023/11/03 07:45:32;;;;;;;5.63;2.00;;;11.70;99.90;;;;;;5073454;28;20383;-69
2023/11/03 07:48:18;;;;;;;5.03;2.60;;;11.70;99.90;;;;;;5050496;28;20037;-68
2023/11/03 07:51:05;;;;;;;4.85;2.47;;;11.70;99.90;;;;;;5071320;28;20559;-69
2023/11/03 07:53:52;;;;;;;4.63;2.60;;;11.80;99.90;;;;;;5069877;28;20082;-69
2023/11/03 07:56:38;;;;;;;5.38;2.90;;;11.80;99.90;;;;;;5063356;28;20041;-68
2023/11/03 07:59:24;;;;;;;7.93;2.95;;;11.80;99.90;;;;;;5051633;28;20044;-68
2023/11/03 08:02:10;;;;;;;7.30;2.75;;;11.90;99.90;;;;;;5068564;28;20485;-68
2023/11/03 08:04:56;;;;;;;7.13;3.40;;;11.90;99.90;;;;;;5068863;28;20090;-69
2023/11/03 08:07:42;;;;;;;5.80;2.67;;;11.90;99.90;;;;;;5068566;28;20154;-68
2023/11/03 08:10:28;;;;;;;6.95;3.35;;;12.00;99.90;;;;;;5062099;28;20041;-69
2023/11/03 08:13:14;;;;;;;7.13;2.70;;;12.00;99.90;;;;;;5058933;28;20053;-69
2023/11/03 08:16:02;;;;;;;5.43;2.95;;;12.00;99.90;;;;;;5049762;28;20044;-69
2023/11/03 08:18:48;;;;;;;5.03;3.30;;;12.00;99.90;;;;;;5059552;28;20041;-68
2023/11/03 08:21:42;;;;;;;8.27;3.13;;;12.10;99.90;;;;;;5074104;28;20466;-68
2023/11/03 08:24:29;;;;;;;8.52;3.08;;;12.00;99.90;;;;;;5066636;28;20071;-68
2023/11/03 08:27:15;;;;;;;8.07;3.63;;;12.10;99.90;;;;;;5069239;28;20504;-68
2023/11/03 08:30:04;;;;;;;4.80;3.05;;;12.10;99.90;;;;;;5069685;28;20070;-68
2023/11/03 08:32:50;;;;;;;5.90;2.72;;;12.10;99.90;;;;;;5055518;28;20124;-69
2023/11/03 08:35:36;;;;;;;9.30;3.33;;;12.10;99.90;;;;;;5040311;28;20037;-69
2023/11/03 08:38:22;;;;;;;6.15;3.20;;;12.10;99.90;;;;;;5061298;28;20040;-68
2023/11/03 08:41:09;;;;;;;5.28;2.50;;;12.10;99.90;;;;;;5056937;28;20127;-69
2023/11/03 08:43:55;;;;;;;5.53;2.72;;;12.20;99.90;;;;;;5053019;28;20041;-70
2023/11/03 08:46:40;;;;;;;9.05;3.03;;;12.20;99.90;;;;;;5048528;28;20041;-70
2023/11/03 08:49:30;;;;;;;8.73;3.20;;;12.20;99.90;;;;;;5067431;28;20036;-69
2023/11/03 08:52:15;;;;;;;10.35;2.50;;;12.30;99.90;;;;;;5059366;28;20040;-69
2023/11/03 08:55:06;;;;;;;5.80;2.63;;;12.30;99.90;;;;;;5068418;28;20037;-69
2023/11/03 08:57:53;;;;;;;6.05;3.03;;;12.40;99.90;;;;;;5068275;28;20040;-70
2023/11/03 09:00:39;;;;;;;4.63;2.70;;;12.40;99.90;;;;;;5060860;28;20383;-71
2023/11/03 09:03:25;;;;;;;7.63;3.58;;;12.50;99.90;;;;;;5048232;28;20063;-70
2023/11/03 09:06:12;;;;;;;7.43;3.47;;;12.50;99.90;;;;;;5067320;28;20040;-69
2023/11/03 09:08:57;;;;;;;7.75;3.03;;;12.50;99.90;;;;;;5049750;28;20064;-70
2023/11/03 09:11:44;;;;;;;6.43;2.28;;;12.60;99.90;;;;;;5066364;28;20040;-69
2023/11/03 09:14:30;;;;;;;5.60;2.78;;;12.60;99.90;;;;;;5064666;28;20547;-71
2023/11/03 09:17:15;;;;;;;9.57;3.05;;;12.70;99.90;;;;;;5048279;28;20383;-70
2023/11/03 09:20:04;;;;;;;7.75;2.20;;;12.70;99.90;;;;;;5048406;28;20069;-71
2023/11/03 09:22:50;;;;;;;6.15;2.83;;;12.80;99.90;;;;;;5051579;28;20439;-70
2023/11/03 09:25:37;;;;;;;6.57;2.85;;;12.80;99.90;;;;;;5058438;28;20433;-70
2023/11/03 09:28:23;;;;;;;4.20;2.17;;;12.80;99.90;;;;;;5066576;28;20045;-69
2023/11/03 09:31:08;;;;;;;6.55;3.20;;;12.90;99.90;;;;;;5050058;28;20064;-70
2023/11/03 09:33:55;;;;;;;4.85;2.50;;;13.00;99.90;;;;;;5051776;28;20099;-70
2023/11/03 09:36:42;;;;;;;7.30;2.47;;;13.00;99.90;;;;;;5061914;28;20036;-70
2023/11/03 09:39:28;;;;;;;8.73;2.65;;;13.00;99.90;;;;;;5069882;28;20469;-70
2023/11/03 09:42:18;;;;;;;7.50;2.20;;;13.10;99.90;;;;;;5071972;28;20053;-71
2023/11/03 09:45:09;;;;;;;6.40;2.20;;;13.10;99.90;;;;;;5071112;28;20037;-70
2023/11/03 09:47:57;;;;;;;15.32;2.45;;;13.10;99.90;;;;;;5058666;28;20099;-71
2023/11/03 09:50:43;;;;;;;4.38;2.25;;;13.20;99.90;;;;;;5051294;28;20045;-70
2023/11/03 09:53:31;;;;;;;5.13;2.55;;;13.20;99.90;;;;;;5051717;28;20207;-70
2023/11/03 09:56:18;;;;;;;7.38;2.25;;;13.20;99.90;;;;;;5053104;28;20060;-70
2023/11/03 09:59:07;;;;;;;7.40;2.42;;;13.20;99.90;;;;;;5051533;28;20094;-71
2023/11/03 10:01:53;;;;;;;4.32;2.28;;;13.20;99.90;;;;;;5052435;28;20576;-70
2023/11/03 10:04:39;;;;;;;4.53;2.10;;;13.20;99.90;;;;;;5052391;28;20041;-70
2023/11/03 10:07:25;;;;;;;5.72;2.20;;;13.30;99.90;;;;;;5053371;28;20505;-70
2023/11/03 10:10:14;;;;;;;6.18;2.63;;;13.30;99.90;;;;;;5051068;28;20445;-70
2023/11/03 10:13:01;;;;;;;11.45;2.28;;;13.30;99.90;;;;;;5051643;28;20435;-70
2023/11/03 10:15:47;;;;;;;4.95;2.20;;;13.30;99.90;;;;;;5071295;28;20382;-69
2023/11/03 10:18:39;;;;;;;7.72;2.45;;;13.30;99.90;;;;;;5064115;28;20041;-71
2023/11/03 10:21:25;;;;;;;7.05;3.10;;;13.50;99.90;;;;;;5071130;28;20611;-70
2023/11/03 10:24:10;;;;;;;6.18;2.35;;;13.50;99.90;;;;;;5072153;28;20119;-70
2023/11/03 10:26:57;;;;;;;5.28;2.08;;;13.50;99.90;;;;;;5050003;28;20047;-70
2023/11/03 10:29:43;;;;;;;4.30;2.38;;;13.50;99.90;;;;;;5052960;28;20071;-70
2023/11/03 10:32:30;;;;;;;5.85;2.63;;;13.50;99.90;;;;;;5050494;28;20792;-71
2023/11/03 10:35:16;;;;;;;5.28;2.20;;;13.60;99.90;;;;;;5051907;28;20047;-70
2023/11/03 10:38:02;;;;;;;6.93;3.10;;;13.50;99.90;;;;;;5050890;28;20486;-70
2023/11/03 10:40:52;;;;;;;7.32;3.58;;;13.60;99.90;;;;;;5049422;28;20045;-70
2023/11/03 10:43:47;;;;;;;9.02;2.90;;;13.60;99.90;;;;;;5069839;28;20056;-70
2023/11/03 10:46:37;;;;;;;7.55;3.13;;;13.60;99.90;;;;;;5060157;28;20040;-70
2023/11/03 10:49:30;;;;;;;5.10;2.33;;;13.60;99.90;;;;;;5050927;28;20106;-70
2023/11/03 10:52:41;;;;;;;4.85;1.90;;;13.70;99.90;;;;;;5051632;28;20136;-70
2023/11/03 10:55:34;;;;;;;4.45;1.88;;;13.70;99.90;;;;;;5050146;28;20107;-71
2023/11/03 10:58:21;;;;;;;6.75;2.40;;;13.70;99.90;;;;;;5050548;28;20079;-70
2023/11/03 11:01:12;;;;;;;5.93;2.88;;;13.70;99.90;;;;;;5052778;28;20049;-70
2023/11/03 11:04:25;;;;;;;7.32;2.85;;;13.70;99.90;;;;;;5050570;28;20033;-71
2023/11/03 11:07:17;;;;;;;3.15;1.90;;;13.70;99.90;;;;;;5071079;28;20120;-70
2023/11/03 11:10:03;;;;;;;4.82;2.28;;;13.70;99.90;;;;;;5069895;28;20125;-70
2023/11/03 11:12:50;;;;;;;3.63;1.73;;;13.70;99.90;;;;;;5066325;28;20683;-69
2023/11/03 11:15:37;;;;;;;3.83;1.63;;;13.70;99.90;;;;;;5062890;28;20040;-70
2023/11/03 11:18:24;;;;;;;6.30;2.10;;;13.70;99.90;;;;;;5071067;28;20521;-69
2023/11/03 11:21:11;;;;;;;5.32;2.75;;;13.70;99.90;;;;;;5082848;28;20029;-71
2023/11/03 11:23:59;;;;;;;7.30;2.45;;;13.70;99.90;;;;;;5077675;28;20063;-69
2023/11/03 11:26:47;;;;;;;4.70;2.50;;;13.70;99.90;;;;;;5070991;28;20045;-69
2023/11/03 11:29:33;;;;;;;5.30;2.78;;;13.70;99.90;;;;;;5049877;28;20044;-69
2023/11/03 11:32:25;;;;;;;8.57;2.42;;;13.80;99.90;;;;;;5051186;28;20124;-68
2023/11/03 11:35:11;;;;;;;5.40;2.17;;;13.80;99.90;;;;;;5069278;28;20044;-69
2023/11/03 11:37:58;;;;;;;5.45;2.15;;;13.80;99.90;;;;;;5064644;28;20087;-69
2023/11/03 11:40:43;;;;;;;5.07;2.45;;;13.80;99.90;;;;;;5049223;28;20529;-68
2023/11/03 11:43:30;;;;;;;6.93;2.75;;;13.80;99.80;;;;;;5051396;28;20098;-69
2023/11/03 11:46:16;;;;;;;6.78;2.90;;;13.80;99.70;;;;;;5049323;28;20183;-69
2023/11/03 11:49:02;;;;;;;9.10;3.00;;;13.80;99.60;;;;;;5048231;28;20047;-69
2023/11/03 11:51:53;;;;;;;6.38;3.03;;;13.80;99.50;;;;;;5049850;28;20045;-68
2023/11/03 11:54:39;;;;;;;7.18;2.55;;;13.90;99.50;;;;;;5049194;28;20044;-69
2023/11/03 11:57:26;;;;;;;7.53;2.60;;;13.90;99.50;;;;;;5066161;28;20052;-69
2023/11/03 12:00:15;;;;;;;5.22;2.20;;;13.90;99.50;;;;;;5068712;28;20048;-69
2023/11/03 12:03:01;;;;;;;4.68;1.95;;;13.90;99.40;;;;;;5048104;28;20076;-68
2023/11/03 12:05:48;;;;;;;5.63;2.17;;;13.90;99.40;;;;;;5049463;28;20555;-68
2023/11/03 12:08:34;;;;;;;5.65;1.80;;;13.90;99.30;;;;;;5049549;28;20040;-69
2023/11/03 12:11:20;;;;;;;11.88;2.63;;;13.90;99.20;;;;;;5072096;28;20037;-69
2023/11/03 12:14:07;;;;;;;4.70;2.33;;;13.90;99.20;;;;;;5052626;28;20502;-69
2023/11/03 12:16:53;;;;;;;4.78;2.40;;;13.90;99.20;;;;;;5063323;28;20041;-64
2023/11/03 12:19:40;;;;;;;7.53;2.65;;;13.90;99.10;;;;;;5069730;28;20410;-64
2023/11/03 12:22:26;;;;;;;6.75;2.40;;;13.90;99.00;;;;;;5070289;28;20455;-63
2023/11/03 12:25:12;;;;;;;5.10;1.75;;;13.90;99.00;;;;;;5061895;28;20078;-63
2023/11/03 12:27:58;;;;;;;5.30;2.30;;;13.90;98.90;;;;;;5049913;28;20047;-63
2023/11/03 12:30:52;;;;;;;4.85;2.58;;;13.90;98.90;;;;;;5050797;28;20049;-63
2023/11/03 12:33:38;;;;;;;5.05;2.15;;;13.90;98.80;;;;;;5059686;28;20524;-62
2023/11/03 12:36:26;;;;;;;5.57;2.55;;;14.00;98.80;;;;;;5057699;28;20086;-63
2023/11/03 12:39:12;;;;;;;5.85;2.88;;;14.00;98.70;;;;;;5064801;28;20040;-63
2023/11/03 12:42:07;;;;;;;8.10;2.97;;;14.00;98.60;;;;;;5070162;28;20048;-62
2023/11/03 12:44:56;;;;;;;8.07;3.10;;;14.00;98.60;;;;;;5058600;28;20056;-63
2023/11/03 12:47:52;;;;;;;5.70;2.85;;;13.90;98.70;;;;;;5066359;28;20549;-63
2023/11/03 12:50:50;;;;;;;3.22;1.90;;;13.90;98.60;;;;;;5068263;28;20508;-63
2023/11/03 12:53:48;;;;;;;4.55;1.85;;;13.90;98.70;;;;;;5068135;28;20037;-62
2023/11/03 12:56:46;;;;;;;7.55;1.70;;;13.90;98.70;;;;;;5065682;28;20090;-70
2023/11/03 12:59:32;;;;;;;4.13;1.85;;;14.00;98.70;;;;;;5052273;28;20037;-70
2023/11/03 13:02:18;;;;;;;5.50;2.60;;;14.00;98.70;;;;;;5052520;28;20383;-71
2023/11/03 13:05:04;;;;;;;5.72;2.78;;;14.00;98.60;;;;;;5052811;28;20525;-70
2023/11/03 13:07:51;;;;;;;6.15;2.05;;;14.10;98.60;;;;;;5054101;28;20495;-70
2023/11/03 13:10:42;;;;;;;13.40;2.50;;;14.10;98.50;;;;;;5037179;28;20040;-71
2023/11/03 13:13:28;;;;;;;4.65;2.08;;;14.20;98.50;;;;;;5052592;28;20033;-64
2023/11/03 13:16:14;;;;;;;10.60;2.65;;;14.10;98.40;;;;;;5045867;28;20064;-63
2023/11/03 13:19:00;;;;;;;3.28;1.90;;;14.20;98.40;;;;;;5072299;28;20478;-63
2023/11/03 13:21:46;;;;;;;4.20;1.58;;;14.10;98.20;;;;;;5072394;28;20091;-64
2023/11/03 13:24:32;;;;;;;4.30;2.05;;;14.20;98.20;;;;;;5065868;28;20052;-63
2023/11/03 13:27:19;;;;;;;5.63;2.10;;;14.20;98.10;;;;;;5053868;28;20106;-65
2023/11/03 13:30:06;;;;;;;5.55;2.53;;;14.20;98.10;;;;;;5051055;28;20048;-62
2023/11/03 13:32:53;;;;;;;5.03;2.20;;;14.20;98.10;;;;;;5054745;28;20043;-63
2023/11/03 13:35:39;;;;;;;6.32;2.33;;;14.30;98.10;;;;;;5071331;28;20040;-63
2023/11/03 13:38:25;;;;;;;5.28;2.13;;;14.20;98.10;;;;;;5060822;28;20045;-63
2023/11/03 13:41:11;;;;;;;8.57;2.55;;;14.20;98.20;;;;;;5053066;28;20049;-62
2023/11/03 13:43:57;;;;;;;8.23;2.50;;;14.20;98.20;;;;;;5053373;28;20052;-63
2023/11/03 13:46:43;;;;;;;6.25;2.17;;;14.30;98.20;;;;;;5063032;28;20033;-63
2023/11/03 13:49:29;;;;;;;5.30;2.72;;;14.30;98.10;;;;;;5053025;28;20041;-63
2023/11/03 13:52:16;;;;;;;7.78;3.08;;;14.30;98.20;;;;;;5071259;28;20063;-62
2023/11/03 13:55:04;;;;;;;5.53;2.40;;;14.30;98.20;;;;;;5056209;28;20211;-62
2023/11/03 13:57:51;;;;;;;8.20;2.67;;;14.20;98.20;;;;;;5049036;28;20080;-61
2023/11/03 14:00:37;;;;;;;5.13;2.60;;;14.20;98.20;;;;;;5058811;28;20052;-62
2023/11/03 14:03:23;;;;;;;4.97;2.67;;;14.30;98.20;;;;;;5052885;28;20037;-63
2023/11/03 14:06:09;;;;;;;5.43;2.10;;;14.20;98.10;;;;;;5052118;28;20470;-63
2023/11/03 14:08:55;;;;;;;6.30;2.30;;;14.20;98.10;;;;;;5049915;28;20502;-63
2023/11/03 14:11:42;;;;;;;3.97;2.10;;;14.20;98.10;;;;;;5051662;28;20399;-62
2023/11/03 14:14:32;;;;;;;7.05;2.75;;;14.20;98.10;;;;;;5050995;28;20123;-64
2023/11/03 14:17:20;;;;;;;6.15;2.60;;;14.20;98.00;;;;;;5056825;28;20127;-63
2023/11/03 14:20:09;;;;;;;7.40;2.25;;;14.20;97.90;;;;;;5071244;28;20076;-64
2023/11/03 14:22:54;;;;;;;6.30;3.10;;;14.20;97.90;;;;;;5069374;28;20064;-63
2023/11/03 14:25:40;;;;;;;8.32;2.92;;;14.10;97.90;;;;;;5071288;28;20380;-62
2023/11/03 14:28:26;;;;;;;5.65;2.88;;;14.10;98.00;;;;;;5077218;28;20107;-63
2023/11/03 14:31:12;;;;;;;4.95;2.50;;;14.10;98.00;;;;;;5078849;28;20135;-65
2023/11/03 14:34:03;;;;;;;5.72;2.97;;;14.00;98.10;;;;;;5069598;28;20048;-62
2023/11/03 14:36:50;;;;;;;3.88;2.10;;;14.00;98.00;;;;;;5070170;28;20040;-63
2023/11/03 14:39:38;;;;;;;8.18;2.67;;;14.00;98.00;;;;;;5063583;28;20468;-71
2023/11/03 14:42:24;;;;;;;7.75;2.67;;;14.00;98.00;;;;;;5052110;28;20443;-73
2023/11/03 14:45:11;;;;;;;6.45;2.38;;;14.00;97.90;;;;;;5050228;28;20120;-71
2023/11/03 14:47:57;;;;;;;6.47;2.65;;;13.90;97.80;;;;;;5051118;28;20337;-72
2023/11/03 14:50:44;;;;;;;7.70;2.63;;;13.90;97.80;;;;;;5057390;28;20048;-62
2023/11/03 14:53:30;;;;;;;4.93;2.00;;;13.80;97.80;;;;;;5051978;28;20052;-62
2023/11/03 14:56:18;;;;;;;6.95;2.53;;;13.80;97.80;;;;;;5061627;28;20557;-62
2023/11/03 14:59:04;;;;;;;5.95;2.83;;;13.80;97.70;;;;;;5069141;28;20127;-63
2023/11/03 15:01:51;;;;;;;7.38;2.72;;;13.80;97.70;;;;;;5069513;28;20044;-62
2023/11/03 15:04:37;;;;;;;6.95;2.72;;;13.70;97.70;;;;;;5070011;28;20074;-62
2023/11/03 15:07:23;;;;;;;4.78;2.10;;;13.70;97.90;;;;;;5067396;28;20050;-62
2023/11/03 15:10:11;;;;;;;6.47;2.20;;;13.60;98.10;;;;;;5049727;28;20048;-62
2023/11/03 15:12:57;;;;;;;5.72;2.50;;;13.60;98.00;;;;;;5050813;28;20054;-62
2023/11/03 15:15:44;;;;;;;6.05;2.45;;;13.60;98.00;;;;;;5048577;28;20076;-62
2023/11/03 15:18:30;;;;;;;4.80;2.55;;;13.50;98.10;;;;;;5050329;28;20068;-62
2023/11/03 15:21:16;;;;;;;6.60;3.22;;;13.50;98.20;;;;;;5061475;28;20028;-63
2023/11/03 15:24:02;;;;;;;6.88;3.28;;;13.50;98.30;;;;;;5059169;28;20120;-64
2023/11/03 15:26:49;;;;;;;5.78;2.92;;;13.40;98.40;;;;;;5061727;28;20365;-63
2023/11/03 15:29:34;;;;;;;8.30;3.25;;;13.40;98.40;;;;;;5050076;28;20040;-63
2023/11/03 15:32:22;;;;;;;7.28;2.92;;;13.30;98.50;;;;;;5060739;28;20107;-63
2023/11/03 15:35:09;;;;;;;9.32;3.65;;;13.30;98.60;;;;;;5056011;28;20041;-64
2023/11/03 15:37:55;;;;;;;8.48;4.07;;;13.30;98.60;;;;;;5057272;28;20076;-64
2023/11/03 15:40:41;;;;;;;8.80;4.00;;;13.30;98.60;;;;;;5052931;28;20076;-64
2023/11/03 15:43:27;;;;;;;11.50;5.05;;;13.20;98.70;;;;;;5064188;28;20068;-64
2023/11/03 15:46:13;;;;;;;13.52;5.97;;;13.20;98.70;;;;;;5068162;28;20044;-63
2023/11/03 15:48:59;;;;;;;7.65;4.05;;;13.20;98.70;;;;;;5063328;28;20041;-63
2023/11/03 15:51:45;;;;;;;8.68;4.70;;;13.20;98.80;;;;;;5048144;28;20107;-63
2023/11/03 15:54:31;;;;;;;9.07;5.45;;;13.20;98.90;;;;;;5066952;28;20251;-63
2023/11/03 15:57:18;;;;;;;11.68;5.38;;;13.10;98.90;;;;;;5069582;28;20082;-62
2023/11/03 16:00:08;;;;;;;10.70;6.43;;;13.10;99.00;;;;;;5069833;28;20051;-63
2023/11/03 16:02:54;;;;;;;13.90;6.75;;;13.10;99.00;;;;;;5049058;28;20128;-62
2023/11/03 16:05:40;;;;;;;9.85;6.53;;;13.00;99.10;;;;;;5049685;28;20037;-63
2023/11/03 16:08:26;;;;;;;12.05;6.45;;;13.00;99.20;;;;;;5052653;28;20048;-63
2023/11/03 16:11:13;;;;;;;11.30;6.88;;;13.00;99.20;;;;;;5067631;28;20048;-66
2023/11/03 16:13:59;;;;;;;12.43;6.90;;;13.00;99.20;;;;;;5050260;28;20076;-65
2023/11/03 16:16:45;;;;;;;12.02;6.22;;;12.90;99.30;;;;;;5048741;28;20391;-63
2023/11/03 16:19:31;;;;;;;11.75;6.25;;;12.90;99.30;;;;;;5068927;28;20135;-64
2023/11/03 16:22:17;;;;;;;11.75;5.88;;;12.90;99.40;;;;;;5061019;28;20151;-63
2023/11/03 16:25:04;;;;;;;8.20;5.15;;;12.90;99.40;;;;;;5053416;28;20111;-63
2023/11/03 16:27:50;;;;;;;12.70;5.97;;;12.90;99.50;;;;;;5063666;28;20071;-64
2023/11/03 16:30:37;;;;;;;9.82;5.75;;;12.90;99.60;;;;;;5054588;28;20516;-63
2023/11/03 16:33:23;;;;;;;10.93;6.13;;;12.80;99.60;;;;;;5060967;28;20037;-64
2023/11/03 16:36:17;;;;;;;10.15;5.78;;;12.80;99.70;;;;;;5059165;28;20060;-64
2023/11/03 16:39:04;;;;;;;12.63;5.45;;;12.80;99.80;;;;;;5065618;28;20417;-64
2023/11/03 16:41:50;;;;;;;10.30;5.88;;;12.80;99.80;;;;;;5068107;28;20045;-64
2023/11/03 16:44:36;;;;;;;12.75;6.22;;;12.80;99.90;;;;;;5056157;28;20075;-64
2023/11/03 16:47:22;;;;;;;10.50;5.35;;;12.80;99.90;;;;;;5070216;28;20123;-64
2023/11/03 16:50:10;;;;;;;8.73;4.90;;;12.80;99.90;;;;;;5060813;28;20049;-64
2023/11/03 16:52:56;;;;;;;11.85;6.40;;;12.80;99.90;;;;;;5053551;28;20398;-65
2023/11/03 16:55:45;;;;;;;12.07;6.60;;;12.80;99.90;;;;;;5063911;28;20090;-64
2023/11/03 16:58:32;;;;;;;12.63;7.18;;;12.90;99.90;;;;;;5064523;28;20188;-64
2023/11/03 17:01:17;;;;;;;12.75;7.03;;;12.90;99.90;;;;;;5072448;28;20402;-64
2023/11/03 17:04:04;;;;;;;14.63;6.72;;;12.90;99.90;;;;;;5069124;28;20083;-64
2023/11/03 17:06:50;;;;;;;14.80;6.68;;;12.90;99.90;;;;;;5069278;28;20044;-65
2023/11/03 17:09:36;;;;;;;12.07;6.63;;;12.90;99.90;;;;;;5073035;28;20072;-65
2023/11/03 17:12:22;;;;;;;11.80;7.50;;;12.90;99.90;;;;;;5066805;28;20117;-64
2023/11/03 17:15:12;;;;;;;13.63;8.00;;;12.90;99.90;;;;;;5052431;28;20303;-64
2023/11/03 17:17:59;;;;;;;14.15;8.13;;;12.90;99.90;;;;;;5053458;28;20052;-64
2023/11/03 17:20:46;;;;;;;12.32;7.60;;;12.90;99.90;;;;;;5054255;28;20395;-64
2023/11/03 17:23:32;;;;;;;12.07;7.30;;;12.90;99.90;;;;;;5050455;28;20052;-64
2023/11/03 17:26:18;;;;;;;10.27;5.78;;;12.90;99.90;;;;;;5052345;28;20037;-64
2023/11/03 17:29:05;;;;;;;15.55;6.68;;;12.80;99.90;;;;;;5057452;28;20067;-64
2023/11/03 17:31:52;;;;;;;13.73;6.68;;;12.80;99.90;;;;;;5061511;28;20083;-64
2023/11/03 17:34:38;;;;;;;12.48;7.15;;;12.80;99.90;;;;;;5058439;28;20371;-64
2023/11/03 17:37:24;;;;;;;13.00;6.07;;;12.90;99.90;;;;;;5074710;28;20453;-64
2023/11/03 17:40:11;;;;;;;10.40;6.40;;;12.90;99.90;;;;;;5058644;28;20037;-64
2023/11/03 17:42:58;;;;;;;11.85;6.05;;;12.90;99.90;;;;;;5050631;28;20084;-64
2023/11/03 17:45:44;;;;;;;13.65;6.28;;;12.90;99.90;;;;;;5058746;28;20063;-64
2023/11/03 17:48:34;;;;;;;10.82;5.82;;;12.90;99.90;;;;;;5058897;28;20137;-64
2023/11/03 17:51:19;;;;;;;12.63;6.32;;;12.90;99.90;;;;;;5063170;28;20074;-64
2023/11/03 17:54:06;;;;;;;10.43;5.97;;;12.90;99.90;;;;;;5054993;28;20079;-65
2023/11/03 17:56:56;;;;;;;13.38;6.60;;;12.90;99.90;;;;;;5057187;28;20079;-64
2023/11/03 17:59:42;;;;;;;14.68;6.63;;;12.90;99.90;;;;;;5060109;28;20045;-64
2023/11/03 18:02:29;;;;;;;14.48;6.93;;;12.90;99.90;;;;;;5060525;28;20062;-64
2023/11/03 18:05:16;;;;;;;8.93;5.63;;;12.90;99.90;;;;;;5053240;28;20087;-64
2023/11/03 18:08:02;;;;;;;13.07;6.63;;;13.00;99.90;;;;;;5052448;28;20133;-63
2023/11/03 18:10:48;;;;;;;12.15;6.65;;;12.90;99.90;;;;;;5055328;28;20242;-64
2023/11/03 18:13:34;;;;;;;15.05;6.90;;;12.90;99.90;;;;;;5069579;28;20615;-63
2023/11/03 18:16:25;;;;;;;11.57;7.03;;;12.90;99.90;;;;;;5067885;28;20094;-63
2023/11/03 18:19:12;;;;;;;12.73;7.30;;;12.90;99.90;;;;;;5065823;28;20044;-64
2023/11/03 18:21:57;;;;;;;11.88;7.30;;;12.90;99.90;;;;;;5054205;28;20064;-63
2023/11/03 18:24:44;;;;;;;11.43;6.22;;;12.90;99.90;;;;;;5052122;28;20049;-63
2023/11/03 18:27:29;;;;;;;11.75;6.15;;;12.90;99.90;;;;;;5051233;28;20036;-63
2023/11/03 18:30:15;;;;;;;13.07;6.45;;;12.90;99.90;;;;;;5052140;28;20425;-63
2023/11/03 18:33:03;;;;;;;12.07;6.95;;;12.90;99.90;;;;;;5051572;28;20489;-63
2023/11/03 18:35:49;;;;;;;12.00;6.72;;;13.00;99.90;;;;;;5066378;28;20037;-64
2023/11/03 18:38:35;;;;;;;13.48;6.68;;;12.90;99.90;;;;;;5054408;28;20041;-64
2023/11/03 18:41:22;;;;;;;9.15;5.20;;;12.90;99.90;;;;;;5063559;28;20581;-64
2023/11/03 18:44:09;;;;;;;11.15;5.80;;;12.90;99.90;;;;;;5067193;28;20068;-64
2023/11/03 18:46:55;;;;;;;11.48;6.55;;;12.90;99.90;;;;;;5064005;28;20045;-64
2023/11/03 18:49:41;;;;;;;10.90;5.75;;;12.90;99.90;;;;;;5065385;28;20052;-64
2023/11/03 18:52:28;;;;;;;9.57;5.85;;;12.90;99.90;;;;;;5054529;28;20048;-64
2023/11/03 18:55:15;;;;;;;9.35;5.53;;;12.90;99.90;;;;;;5053102;28;20052;-64
2023/11/03 18:58:01;;;;;;;8.75;4.47;;;12.90;99.90;;;;;;5067117;28;20115;-64
2023/11/03 19:00:48;;;;;;;7.93;3.70;;;13.00;99.90;;;;;;5047279;28;20574;-65
2023/11/03 19:03:34;;;;;;;5.00;3.45;;;12.90;99.90;;;;;;5064237;28;20048;-64
2023/11/03 19:06:21;;;;;;;9.98;4.60;;;12.90;99.90;;;;;;5069569;28;20550;-64
2023/11/03 19:09:07;;;;;;;8.13;4.28;;;12.90;99.90;;;;;;5070508;28;20620;-63
2023/11/03 19:11:53;;;;;;;8.90;4.38;;;12.90;99.90;;;;;;5052138;28;20044;-63
2023/11/03 19:14:39;;;;;;;7.75;3.95;;;12.90;99.90;;;;;;5040512;28;20115;-64
2023/11/03 19:17:25;;;;;;;9.93;4.70;;;12.90;99.90;;;;;;5057499;28;20140;-64
2023/11/03 19:20:12;;;;;;;6.45;4.05;;;12.90;99.90;;;;;;5052019;28;20634;-64
2023/11/03 19:22:58;;;;;;;9.68;4.35;;;12.90;99.90;;;;;;5070251;28;20049;-64
2023/11/03 19:25:44;;;;;;;6.32;3.80;;;12.90;99.90;;;;;;5064195;28;20041;-67
2023/11/03 19:28:32;;;;;;;7.53;4.35;;;12.90;99.90;;;;;;5049741;28;20123;-64
2023/11/03 19:31:20;;;;;;;7.88;4.28;;;12.90;99.90;;;;;;5023032;28;20108;-64
2023/11/03 19:34:06;;;;;;;9.88;4.03;;;12.90;99.90;;;;;;5020315;28;20515;-64
2023/11/03 19:36:52;;;;;;;10.55;4.95;;;12.80;99.90;;;;;;5008978;28;20052;-65
2023/11/03 19:39:38;;;;;;;7.57;3.90;;;12.90;99.90;;;;;;5010576;28;20045;-65
2023/11/03 19:42:24;;;;;;;9.55;4.20;;;12.80;99.90;;;;;;5036848;28;20061;-65
2023/11/03 19:45:11;;;;;;;7.55;3.90;;;12.80;99.90;;;;;;5013768;28;20038;-65
2023/11/03 19:47:57;;;;;;;7.25;4.05;;;12.80;99.90;;;;;;5027833;28;20117;-65
2023/11/03 19:50:43;;;;;;;6.90;3.85;;;12.80;99.90;;;;;;5026685;28;20037;-64
2023/11/03 19:53:29;;;;;;;8.10;3.17;;;12.90;99.90;;;;;;5029653;28;20045;-64
2023/11/03 19:56:15;;;;;;;10.25;3.92;;;12.80;99.90;;;;;;5028864;28;20049;-65